createdAt,value
2022-12-24T00:01:01.161Z,2.70
2022-12-24T00:03:28.235Z,0.70
2022-12-24T00:05:55.235Z,0.87
2022-12-24T00:08:22.231Z,1.10
2022-12-24T00:10:53.597Z,1.40
2022-12-24T00:13:21.097Z,1.30
2022-12-24T00:15:48.124Z,2.60
2022-12-24T00:18:14.992Z,1.47
2022-12-24T00:20:41.735Z,1.20
2022-12-24T00:23:08.897Z,1.00
2022-12-24T00:25:35.643Z,0.90
2022-12-24T00:28:02.360Z,4.20
2022-12-24T00:30:29.244Z,1.07
2022-12-24T00:32:56.181Z,1.17
2022-12-24T00:35:23.702Z,1.53
2022-12-24T00:37:51.562Z,1.10
2022-12-24T00:40:18.667Z,0.97
2022-12-24T00:42:45.328Z,1.93
2022-12-24T00:45:12.919Z,1.30
2022-12-24T00:47:39.701Z,1.33
2022-12-24T00:50:07.119Z,1.13
2022-12-24T00:52:34.058Z,1.20
2022-12-24T00:55:00.776Z,3.50
2022-12-24T00:57:27.456Z,1.27
2022-12-24T00:59:54.121Z,2.10
2022-12-24T01:02:21.233Z,1.53
2022-12-24T01:05:06.493Z,3.53
2022-12-24T01:07:33.164Z,2.13
2022-12-24T01:09:59.918Z,1.10
2022-12-24T01:12:26.580Z,1.10
2022-12-24T01:14:53.212Z,1.10
2022-12-24T01:17:19.849Z,1.73
2022-12-24T01:19:46.514Z,2.40
2022-12-24T01:22:13.240Z,1.20
2022-12-24T01:24:43.739Z,1.20
2022-12-24T01:27:10.929Z,1.37
2022-12-24T01:29:37.773Z,1.03
2022-12-24T01:32:04.673Z,1.70
2022-12-24T01:34:31.442Z,1.30
2022-12-24T01:36:58.292Z,1.23
2022-12-24T01:39:25.018Z,1.30
2022-12-24T01:42:10.387Z,0.80
2022-12-24T01:44:42.233Z,1.47
2022-12-24T01:47:17.532Z,1.00
2022-12-24T01:50:15.274Z,1.30
2022-12-24T01:52:42.926Z,2.80
2022-12-24T01:55:16.840Z,0.73
2022-12-24T01:57:49.052Z,1.10
2022-12-24T02:00:16.618Z,1.57
2022-12-24T02:02:46.936Z,1.83
2022-12-24T02:05:35.598Z,5.13
2022-12-24T02:08:04.326Z,1.00
2022-12-24T02:10:31.011Z,1.47
2022-12-24T02:12:59.443Z,1.03
2022-12-24T02:15:34.207Z,1.20
2022-12-24T02:18:22.228Z,1.00
2022-12-24T02:21:09.945Z,3.13
2022-12-24T02:24:02.374Z,2.07
2022-12-24T02:26:47.370Z,2.13
2022-12-24T02:29:49.133Z,0.90
2022-12-24T02:32:33.651Z,2.13
2022-12-24T02:35:12.074Z,0.90
2022-12-24T02:37:44.427Z,5.13
2022-12-24T02:40:16.998Z,3.03
2022-12-24T02:42:50.079Z,1.67
2022-12-24T02:45:34.940Z,1.27
2022-12-24T02:48:02.171Z,1.63
2022-12-24T02:50:28.895Z,1.33
2022-12-24T02:52:55.543Z,1.20
2022-12-24T02:55:33.575Z,1.40
2022-12-24T02:58:12.031Z,1.77
2022-12-24T03:00:56.499Z,0.80
2022-12-24T03:03:40.020Z,4.33
2022-12-24T03:06:39.617Z,1.47
2022-12-24T03:09:32.037Z,1.83
2022-12-24T03:12:04.934Z,2.70
2022-12-24T03:14:34.689Z,1.30
2022-12-24T03:17:03.461Z,1.03
2022-12-24T03:19:31.462Z,2.73
2022-12-24T03:22:01.019Z,1.70
2022-12-24T03:24:27.864Z,1.47
2022-12-24T03:26:54.834Z,1.70
2022-12-24T03:29:21.584Z,2.80
2022-12-24T03:31:50.939Z,1.80
2022-12-24T03:34:18.578Z,0.80
2022-12-24T03:36:46.896Z,1.90
2022-12-24T03:39:13.535Z,1.07
2022-12-24T03:41:40.199Z,2.97
2022-12-24T03:44:06.894Z,6.30
2022-12-24T03:46:33.584Z,2.03
2022-12-24T03:49:00.425Z,1.53
2022-12-24T03:51:28.327Z,1.43
2022-12-24T03:53:56.259Z,2.60
2022-12-24T03:56:23.228Z,1.40
2022-12-24T03:58:50.298Z,2.40
2022-12-24T04:01:18.377Z,2.33
2022-12-24T04:03:45.396Z,1.13
2022-12-24T04:06:16.021Z,2.67
2022-12-24T04:08:42.720Z,1.30
2022-12-24T04:11:11.615Z,1.10
2022-12-24T04:13:38.361Z,1.10
2022-12-24T04:16:08.195Z,1.27
2022-12-24T04:18:35.983Z,1.00
2022-12-24T04:21:02.675Z,1.23
2022-12-24T04:23:33.413Z,2.23
2022-12-24T04:26:01.752Z,1.70
2022-12-24T04:28:32.742Z,2.53
2022-12-24T04:31:00.772Z,2.07
2022-12-24T04:33:27.840Z,2.23
2022-12-24T04:35:54.763Z,2.27
2022-12-24T04:38:21.404Z,1.93
2022-12-24T04:40:48.078Z,0.80
2022-12-24T04:43:15.050Z,4.43
2022-12-24T04:45:41.727Z,1.53
2022-12-24T04:48:08.586Z,2.40
2022-12-24T04:50:35.262Z,1.27
2022-12-24T04:53:01.880Z,2.30
2022-12-24T04:55:28.543Z,1.13
2022-12-24T04:57:55.320Z,1.73
2022-12-24T05:00:22.137Z,1.10
2022-12-24T05:02:48.923Z,1.87
2022-12-24T05:05:15.779Z,2.20
2022-12-24T05:07:42.486Z,1.70
2022-12-24T05:10:10.945Z,2.40
2022-12-24T05:12:37.643Z,2.87
2022-12-24T05:15:04.731Z,3.97
2022-12-24T05:17:31.382Z,1.87
2022-12-24T05:19:58.040Z,2.70
2022-12-24T05:22:43.304Z,1.63
2022-12-24T05:25:29.002Z,1.17
2022-12-24T05:27:56.064Z,1.67
2022-12-24T05:30:22.846Z,4.20
2022-12-24T05:32:49.510Z,2.40
2022-12-24T05:35:16.300Z,1.17
2022-12-24T05:37:42.934Z,1.57
2022-12-24T05:40:10.065Z,1.60
2022-12-24T05:42:36.758Z,2.87
2022-12-24T05:45:03.631Z,2.20
2022-12-24T05:47:30.681Z,2.27
2022-12-24T05:49:57.355Z,1.40
2022-12-24T05:52:24.091Z,3.03
2022-12-24T05:54:50.928Z,2.33
2022-12-24T05:57:17.596Z,3.10
2022-12-24T05:59:44.339Z,3.53
2022-12-24T06:02:11.151Z,1.13
2022-12-24T06:04:37.962Z,3.27
2022-12-24T06:07:04.865Z,1.90
2022-12-24T06:09:31.569Z,1.23
2022-12-24T06:11:58.223Z,1.60
2022-12-24T06:14:24.879Z,1.90
2022-12-24T06:16:52.066Z,2.30
2022-12-24T06:19:18.764Z,1.70
2022-12-24T06:21:45.385Z,2.10
2022-12-24T06:24:12.016Z,2.80
2022-12-24T06:26:38.706Z,3.13
2022-12-24T06:29:06.381Z,3.27
2022-12-24T06:31:33.232Z,2.13
2022-12-24T06:34:00.035Z,2.60
2022-12-24T06:36:26.875Z,1.67
2022-12-24T06:38:54.719Z,1.00
2022-12-24T06:41:21.635Z,2.13
2022-12-24T06:43:51.070Z,3.03
2022-12-24T06:46:18.332Z,2.47
2022-12-24T06:48:46.146Z,1.43
2022-12-24T06:51:14.104Z,2.53
2022-12-24T06:53:41.126Z,2.70
2022-12-24T06:56:10.623Z,1.63
2022-12-24T06:58:37.831Z,0.87
2022-12-24T07:01:06.383Z,1.43
2022-12-24T07:03:33.988Z,2.30
2022-12-24T07:06:01.079Z,4.20
2022-12-24T07:08:27.797Z,1.53
2022-12-24T07:10:54.851Z,0.73
2022-12-24T07:13:22.112Z,2.40
2022-12-24T07:16:00.339Z,2.53
2022-12-24T07:18:27.342Z,1.20
2022-12-24T07:20:54.197Z,0.77
2022-12-24T07:23:21.311Z,0.60
2022-12-24T07:25:48.144Z,0.57
2022-12-24T07:28:14.791Z,1.07
2022-12-24T07:30:41.546Z,1.13
2022-12-24T07:33:08.386Z,4.73
2022-12-24T07:35:35.261Z,0.53
2022-12-24T07:38:02.710Z,1.00
2022-12-24T07:40:29.579Z,1.07
2022-12-24T07:42:56.230Z,1.53
2022-12-24T07:45:22.914Z,0.60
2022-12-24T07:47:49.798Z,1.00
2022-12-24T07:50:16.574Z,0.70
2022-12-24T07:52:43.252Z,1.00
2022-12-24T07:55:10.172Z,3.60
2022-12-24T07:57:36.835Z,0.77
2022-12-24T08:00:04.709Z,0.90
2022-12-24T08:02:31.617Z,1.33
2022-12-24T08:04:58.409Z,0.60
2022-12-24T08:07:25.058Z,0.90
2022-12-24T08:09:51.739Z,2.30
2022-12-24T08:12:18.545Z,1.27
2022-12-24T08:14:45.336Z,2.50
2022-12-24T08:17:12.364Z,0.90
2022-12-24T08:19:39.052Z,1.67
2022-12-24T08:22:05.722Z,1.00
2022-12-24T08:24:32.888Z,1.00
2022-12-24T08:27:00.190Z,2.10
2022-12-24T08:29:27.096Z,2.70
2022-12-24T08:31:53.885Z,1.33
2022-12-24T08:34:20.608Z,0.70
2022-12-24T08:36:47.276Z,1.03
2022-12-24T08:39:13.947Z,0.60
2022-12-24T08:41:40.649Z,1.30
2022-12-24T08:44:07.306Z,3.43
2022-12-24T08:46:33.996Z,1.17
2022-12-24T08:49:00.827Z,0.70
2022-12-24T08:51:27.573Z,1.60
2022-12-24T08:53:54.455Z,1.10
2022-12-24T08:56:21.139Z,1.03
2022-12-24T08:58:48.811Z,0.90
2022-12-24T09:01:18.237Z,2.93
2022-12-24T09:03:45.023Z,1.20
2022-12-24T09:06:12.316Z,0.70
2022-12-24T09:08:39.021Z,2.20
2022-12-24T09:11:09.069Z,2.00
2022-12-24T09:13:36.384Z,1.37
2022-12-24T09:16:03.708Z,0.80
2022-12-24T09:18:30.701Z,0.90
2022-12-24T09:21:07.195Z,0.80
2022-12-24T09:23:40.788Z,3.10
2022-12-24T09:26:15.364Z,0.70
2022-12-24T09:28:42.130Z,2.80
2022-12-24T09:31:11.545Z,1.83
2022-12-24T09:33:40.363Z,6.13
2022-12-24T09:36:07.734Z,4.23
2022-12-24T09:38:35.647Z,1.83
2022-12-24T09:41:11.089Z,0.70
2022-12-24T09:43:38.493Z,1.83
2022-12-24T09:46:05.318Z,0.90
2022-12-24T09:48:35.410Z,1.37
2022-12-24T09:51:16.627Z,1.10
2022-12-24T09:54:14.861Z,1.73
2022-12-24T09:56:45.079Z,2.03
2022-12-24T09:59:16.790Z,1.00
2022-12-24T10:01:44.304Z,2.00
2022-12-24T10:04:16.805Z,1.30
2022-12-24T10:07:04.548Z,1.13
2022-12-24T10:09:46.167Z,1.10
2022-12-24T10:12:42.039Z,1.33
2022-12-24T10:15:35.730Z,1.33
2022-12-24T10:18:17.108Z,0.87
2022-12-24T10:21:11.861Z,2.30
2022-12-24T10:24:08.030Z,1.03
2022-12-24T10:26:45.245Z,2.20
2022-12-24T10:29:19.620Z,1.33
2022-12-24T10:32:10.102Z,0.80
2022-12-24T10:34:43.357Z,2.23
2022-12-24T10:37:30.465Z,2.40
2022-12-24T10:40:02.428Z,1.47
2022-12-24T10:42:51.050Z,2.40
2022-12-24T10:45:21.901Z,2.57
2022-12-24T10:47:52.594Z,1.77
2022-12-24T10:50:29.998Z,0.90
2022-12-24T10:53:07.025Z,0.93
2022-12-24T10:55:33.809Z,1.00
2022-12-24T10:58:04.687Z,2.00
2022-12-24T11:00:36.125Z,2.10
2022-12-24T11:03:12.682Z,2.27
2022-12-24T11:05:40.303Z,1.07
2022-12-24T11:08:18.464Z,1.00
2022-12-24T11:10:57.756Z,1.60
2022-12-24T11:13:40.183Z,2.30
2022-12-24T11:16:28.779Z,1.40
2022-12-24T11:18:57.689Z,2.30
2022-12-24T11:21:37.781Z,1.67
2022-12-24T11:24:04.431Z,3.00
2022-12-24T11:26:31.845Z,2.20
2022-12-24T11:29:21.222Z,3.50
2022-12-24T11:31:48.955Z,1.00
2022-12-24T11:34:32.611Z,2.40
2022-12-24T11:37:22.370Z,3.10
2022-12-24T11:39:53.331Z,2.37
2022-12-24T11:42:38.586Z,1.67
2022-12-24T11:45:20.242Z,4.10
2022-12-24T11:47:47.185Z,2.57
2022-12-24T11:50:32.043Z,2.63
2022-12-24T11:53:07.458Z,2.07
2022-12-24T11:55:53.518Z,3.40
2022-12-24T11:58:34.242Z,2.30
2022-12-24T12:01:22.682Z,1.77
2022-12-24T12:03:54.814Z,1.10
2022-12-24T12:06:28.942Z,3.53
2022-12-24T12:09:00.746Z,3.13
2022-12-24T12:11:28.943Z,1.73
2022-12-24T12:14:00.069Z,3.53
2022-12-24T12:16:57.642Z,1.63
2022-12-24T12:19:26.197Z,5.73
2022-12-24T12:21:52.831Z,1.90
2022-12-24T12:24:33.333Z,3.43
2022-12-24T12:27:42.932Z,3.00
2022-12-24T12:30:20.317Z,1.37
2022-12-24T12:33:10.216Z,2.57
2022-12-24T12:35:39.721Z,2.13
2022-12-24T12:38:11.276Z,2.53
2022-12-24T12:40:50.018Z,2.93
2022-12-24T12:43:49.322Z,1.90
2022-12-24T12:46:54.288Z,2.57
2022-12-24T12:49:21.016Z,3.93
2022-12-24T12:52:00.721Z,3.13
2022-12-24T12:54:27.581Z,2.67
2022-12-24T12:57:01.138Z,2.30
2022-12-24T12:59:40.220Z,2.20
2022-12-24T13:02:12.935Z,2.20
2022-12-24T13:04:58.713Z,2.93
2022-12-24T13:07:38.373Z,2.70
2022-12-24T13:10:50.507Z,2.13
2022-12-24T13:13:48.628Z,1.63
2022-12-24T13:16:30.503Z,1.63
2022-12-24T13:19:04.419Z,2.87
2022-12-24T13:21:31.881Z,2.60
2022-12-24T13:24:21.351Z,2.97
2022-12-24T13:27:17.326Z,3.23
2022-12-24T13:29:56.856Z,1.73
2022-12-24T13:32:24.035Z,1.77
2022-12-24T13:35:21.782Z,1.00
2022-12-24T13:37:49.406Z,2.50
2022-12-24T13:40:26.828Z,1.60
2022-12-24T13:42:59.538Z,3.67
2022-12-24T13:45:48.314Z,2.07
2022-12-24T13:48:33.671Z,4.70
2022-12-24T13:51:24.808Z,1.40
2022-12-24T13:53:58.843Z,2.50
2022-12-24T13:56:28.725Z,3.47
2022-12-24T13:59:11.208Z,2.37
2022-12-24T14:01:41.596Z,2.90
2022-12-24T14:04:20.252Z,3.10
2022-12-24T14:06:51.607Z,3.57
2022-12-24T14:09:22.120Z,2.87
2022-12-24T14:12:04.167Z,2.57
2022-12-24T14:14:36.340Z,2.40
2022-12-24T14:17:20.807Z,1.20
2022-12-24T14:19:57.165Z,2.00
2022-12-24T14:22:42.075Z,2.60
2022-12-24T14:25:22.419Z,2.07
2022-12-24T14:27:58.588Z,2.70
2022-12-24T14:30:27.745Z,1.17
2022-12-24T14:32:54.927Z,2.20
2022-12-24T14:35:23.857Z,3.73
2022-12-24T14:37:57.030Z,2.60
2022-12-24T14:40:28.785Z,1.87
2022-12-24T14:43:06.027Z,2.50
2022-12-24T14:45:36.288Z,1.73
2022-12-24T14:48:28.672Z,5.03
2022-12-24T14:51:13.966Z,7.17
2022-12-24T14:54:05.715Z,3.83
2022-12-24T14:56:33.783Z,1.73
2022-12-24T14:59:04.799Z,1.30
2022-12-24T15:01:36.632Z,2.93
2022-12-24T15:04:09.330Z,1.10
2022-12-24T15:06:39.896Z,1.43
2022-12-24T15:09:17.556Z,2.90
2022-12-24T15:11:46.197Z,1.67
2022-12-24T15:14:13.846Z,1.47
2022-12-24T15:16:41.269Z,1.13
2022-12-24T15:19:22.159Z,1.77
2022-12-24T15:21:49.438Z,1.17
2022-12-24T15:24:35.179Z,2.37
2022-12-24T15:27:25.664Z,1.47
2022-12-24T15:29:55.945Z,2.60
2022-12-24T15:32:23.483Z,151.17
2022-12-24T15:34:54.645Z,400.60
2022-12-24T15:37:31.204Z,155.57
2022-12-24T15:40:24.561Z,116.93
2022-12-24T15:42:53.056Z,29.13
2022-12-24T15:45:29.958Z,5.93
2022-12-24T15:48:07.044Z,2.10
2022-12-24T15:50:48.234Z,1.50
2022-12-24T15:53:19.843Z,3.53
2022-12-24T15:56:04.955Z,4.50
2022-12-24T15:58:40.975Z,4.27
2022-12-24T16:01:13.957Z,8.57
2022-12-24T16:04:02.587Z,3.13
2022-12-24T16:06:53.489Z,2.70
2022-12-24T16:10:14.830Z,8.10
2022-12-24T16:12:41.633Z,3.33
2022-12-24T16:15:15.368Z,2.90
2022-12-24T16:17:48.959Z,3.47
2022-12-24T16:20:21.072Z,3.47
2022-12-24T16:22:49.411Z,2.70
2022-12-24T16:25:20.885Z,2.30
2022-12-24T16:27:47.533Z,3.10
2022-12-24T16:30:14.421Z,8.13
2022-12-24T16:32:44.383Z,13.73
2022-12-24T16:35:27.590Z,5.10
2022-12-24T16:37:55.398Z,4.37
2022-12-24T16:40:27.352Z,2.70
2022-12-24T16:43:13.653Z,3.00
2022-12-24T16:45:40.388Z,2.50
2022-12-24T16:48:08.633Z,5.13
2022-12-24T16:50:35.875Z,8.37
2022-12-24T16:53:02.554Z,6.30
2022-12-24T16:55:29.843Z,3.80
2022-12-24T16:57:56.639Z,2.63
2022-12-24T17:00:25.453Z,3.67
2022-12-24T17:02:53.314Z,4.80
2022-12-24T17:05:23.643Z,6.13
2022-12-24T17:07:51.250Z,2.60
2022-12-24T17:10:18.163Z,1.90
2022-12-24T17:12:44.902Z,1.93
2022-12-24T17:15:11.801Z,1.63
2022-12-24T17:17:38.445Z,2.40
2022-12-24T17:20:06.147Z,3.10
2022-12-24T17:22:32.922Z,1.93
2022-12-24T17:24:59.656Z,3.00
2022-12-24T17:27:26.353Z,3.30
2022-12-24T17:29:53.177Z,3.07
2022-12-24T17:32:20.109Z,1.87
2022-12-24T17:34:46.888Z,2.50
2022-12-24T17:37:13.712Z,2.10
2022-12-24T17:39:40.500Z,4.10
2022-12-24T17:42:07.205Z,3.50
2022-12-24T17:44:33.871Z,1.70
2022-12-24T17:47:01.898Z,1.70
2022-12-24T17:49:29.391Z,2.43
2022-12-24T17:51:56.283Z,4.40
2022-12-24T17:54:23.365Z,7.77
2022-12-24T17:56:50.037Z,2.80
2022-12-24T17:59:17.096Z,2.87
2022-12-24T18:01:43.862Z,4.10
2022-12-24T18:04:11.112Z,2.67
2022-12-24T18:06:44.167Z,2.60
2022-12-24T18:09:14.370Z,3.07
2022-12-24T18:11:41.168Z,2.57
2022-12-24T18:14:08.325Z,3.97
2022-12-24T18:16:38.006Z,2.13
2022-12-24T18:19:06.475Z,3.13
2022-12-24T18:21:33.338Z,3.10
2022-12-24T18:24:00.591Z,5.97
2022-12-24T18:26:30.039Z,3.60
2022-12-24T18:29:00.035Z,6.20
2022-12-24T18:31:28.805Z,4.60
2022-12-24T18:33:56.518Z,5.77
2022-12-24T18:36:24.561Z,5.77
2022-12-24T18:38:51.954Z,5.23
2022-12-24T18:41:21.955Z,4.57
2022-12-24T18:43:49.296Z,5.07
2022-12-24T18:46:18.980Z,5.00
2022-12-24T18:48:46.900Z,3.80
2022-12-24T18:51:14.296Z,4.57
2022-12-24T18:53:41.436Z,4.20
2022-12-24T18:56:12.689Z,6.70
2022-12-24T18:58:41.034Z,3.90
2022-12-24T19:01:18.692Z,6.53
2022-12-24T19:03:46.129Z,7.43
2022-12-24T19:06:13.015Z,6.30
2022-12-24T19:08:57.699Z,7.30
2022-12-24T19:11:25.179Z,5.87
2022-12-24T19:13:53.291Z,5.80
2022-12-24T19:16:20.865Z,6.30
2022-12-24T19:18:47.879Z,6.77
2022-12-24T19:21:15.787Z,4.83
2022-12-24T19:23:42.671Z,5.60
2022-12-24T19:26:11.260Z,4.70
2022-12-24T19:28:38.729Z,5.67
2022-12-24T19:31:07.598Z,4.17
2022-12-24T19:33:42.935Z,3.17
2022-12-24T19:36:13.416Z,3.70
2022-12-24T19:38:40.756Z,3.20
2022-12-24T19:41:12.529Z,4.10
2022-12-24T19:43:41.309Z,4.13
2022-12-24T19:46:09.655Z,2.77
2022-12-24T19:48:37.450Z,3.53
2022-12-24T19:51:07.768Z,5.93
2022-12-24T19:53:35.181Z,4.23
2022-12-24T19:56:02.256Z,3.93
2022-12-24T19:58:29.055Z,3.50
2022-12-24T20:00:55.942Z,4.80
2022-12-24T20:03:22.773Z,3.30
2022-12-24T20:05:49.571Z,6.50
2022-12-24T20:08:16.550Z,3.50
2022-12-24T20:10:44.188Z,6.23
2022-12-24T20:13:11.249Z,6.97
2022-12-24T20:15:41.816Z,4.90
2022-12-24T20:18:10.039Z,4.60
2022-12-24T20:20:37.710Z,5.20
2022-12-24T20:23:05.345Z,6.00
2022-12-24T20:25:38.471Z,4.83
2022-12-24T20:28:05.889Z,6.30
2022-12-24T20:30:36.496Z,6.60
2022-12-24T20:33:03.339Z,6.97
2022-12-24T20:35:29.996Z,5.33
2022-12-24T20:37:56.641Z,4.93
2022-12-24T20:40:23.334Z,4.93
2022-12-24T20:42:52.810Z,5.00
2022-12-24T20:45:19.456Z,4.57
2022-12-24T20:47:46.097Z,3.80
2022-12-24T20:50:12.852Z,3.40
2022-12-24T20:52:39.496Z,3.43
2022-12-24T20:55:06.515Z,3.00
2022-12-24T20:57:36.436Z,3.70
2022-12-24T21:00:04.510Z,4.20
2022-12-24T21:02:31.387Z,3.70
2022-12-24T21:05:02.221Z,4.23
2022-12-24T21:07:29.429Z,4.50
2022-12-24T21:09:56.074Z,4.33
2022-12-24T21:12:41.163Z,3.50
2022-12-24T21:15:08.020Z,3.83
2022-12-24T21:17:34.682Z,3.53
2022-12-24T21:20:01.329Z,4.30
2022-12-24T21:22:27.974Z,5.03
2022-12-24T21:24:54.639Z,3.50
2022-12-24T21:27:21.306Z,4.73
2022-12-24T21:29:48.114Z,3.23
2022-12-24T21:32:14.851Z,3.77
2022-12-24T21:34:41.540Z,3.27
2022-12-24T21:37:08.221Z,2.90
2022-12-24T21:39:35.066Z,3.80
2022-12-24T21:42:01.966Z,2.73
2022-12-24T21:44:28.787Z,3.00
2022-12-24T21:46:55.404Z,4.30
2022-12-24T21:49:40.784Z,3.40
2022-12-24T21:52:07.461Z,2.90
2022-12-24T21:54:34.226Z,3.43
2022-12-24T21:57:23.055Z,3.00
2022-12-24T21:59:54.389Z,4.10
2022-12-24T22:02:26.582Z,3.50
2022-12-24T22:04:54.266Z,3.60
2022-12-24T22:07:45.554Z,3.67
2022-12-24T22:10:32.435Z,5.50
2022-12-24T22:12:59.934Z,4.60
2022-12-24T22:15:27.368Z,4.20
2022-12-24T22:17:54.014Z,3.93
2022-12-24T22:20:20.759Z,3.80
2022-12-24T22:22:48.617Z,4.27
2022-12-24T22:25:16.155Z,4.17
2022-12-24T22:27:43.015Z,4.10
2022-12-24T22:30:10.258Z,4.97
2022-12-24T22:32:37.083Z,4.03
2022-12-24T22:35:03.989Z,4.00
2022-12-24T22:37:30.642Z,3.40
2022-12-24T22:39:57.262Z,3.33
2022-12-24T22:42:23.913Z,3.83
2022-12-24T22:44:50.557Z,3.23
2022-12-24T22:47:17.195Z,3.47
2022-12-24T22:49:43.856Z,3.30
2022-12-24T22:52:10.528Z,3.23
2022-12-24T22:54:37.254Z,2.43
2022-12-24T22:57:03.884Z,2.83
2022-12-24T22:59:30.550Z,2.53
2022-12-24T23:01:58.208Z,1.90
2022-12-24T23:04:26.148Z,1.60
2022-12-24T23:06:52.880Z,4.30
2022-12-24T23:09:19.520Z,1.83
2022-12-24T23:11:46.202Z,3.03
2022-12-24T23:14:37.628Z,1.70
2022-12-24T23:17:04.765Z,1.63
2022-12-24T23:19:33.419Z,1.80
2022-12-24T23:22:01.593Z,2.00
2022-12-24T23:24:28.637Z,2.37
2022-12-24T23:26:55.575Z,3.77
2022-12-24T23:29:22.312Z,3.67
2022-12-24T23:31:48.981Z,2.50
2022-12-24T23:34:15.707Z,2.20
2022-12-24T23:36:42.355Z,2.63
2022-12-24T23:39:09.050Z,2.90
2022-12-24T23:41:35.695Z,2.57
2022-12-24T23:44:02.495Z,2.40
2022-12-24T23:46:30.188Z,3.20
2022-12-24T23:48:57.472Z,2.37
2022-12-24T23:51:26.771Z,3.00
2022-12-24T23:53:56.082Z,2.43
2022-12-24T23:56:24.999Z,2.63
2022-12-24T23:58:51.968Z,2.70
